createdAt,value
2023-02-23T00:01:32.432Z,23.80
2023-02-23T00:04:02.764Z,20.10
2023-02-23T00:06:36.779Z,19.73
2023-02-23T00:09:14.025Z,19.67
2023-02-23T00:11:44.350Z,20.15
2023-02-23T00:14:14.599Z,21.50
2023-02-23T00:16:45.640Z,20.52
2023-02-23T00:19:17.733Z,20.63
2023-02-23T00:21:51.131Z,22.90
2023-02-23T00:24:22.252Z,18.27
2023-02-23T00:26:52.551Z,18.88
2023-02-23T00:29:23.736Z,16.45
2023-02-23T00:34:24.693Z,17.25
2023-02-23T00:36:57.878Z,16.40
2023-02-23T00:39:29.510Z,16.50
2023-02-23T00:42:03.228Z,18.73
2023-02-23T00:44:34.213Z,16.80
2023-02-23T00:47:04.674Z,14.63
2023-02-23T00:49:35.188Z,15.85
2023-02-23T00:52:08.203Z,15.35
2023-02-23T00:54:38.611Z,15.20
2023-02-23T00:57:08.801Z,14.75
2023-02-23T00:59:39.226Z,15.50
2023-02-23T01:02:09.448Z,15.45
2023-02-23T01:04:39.806Z,14.90
2023-02-23T01:07:13.191Z,15.13
2023-02-23T01:09:43.966Z,15.70
2023-02-23T01:12:14.263Z,14.18
2023-02-23T01:14:44.527Z,14.95
2023-02-23T01:17:14.840Z,17.33
2023-02-23T01:19:45.098Z,13.88
2023-02-23T01:22:17.968Z,14.18
2023-02-23T01:24:48.209Z,13.35
2023-02-23T01:27:18.393Z,13.13
2023-02-23T01:29:48.847Z,13.82
2023-02-23T01:32:19.110Z,14.02
2023-02-23T01:34:49.743Z,13.32
2023-02-23T01:37:22.573Z,12.93
2023-02-23T01:39:52.925Z,13.65
2023-02-23T01:42:23.197Z,12.50
2023-02-23T01:45:09.867Z,13.27
2023-02-23T01:47:40.090Z,14.00
2023-02-23T01:50:11.989Z,14.15
2023-02-23T01:52:44.867Z,13.10
2023-02-23T01:55:15.823Z,15.65
2023-02-23T01:57:46.155Z,13.70
2023-02-23T02:00:20.203Z,13.18
2023-02-23T02:02:50.733Z,12.73
2023-02-23T02:05:21.285Z,12.27
2023-02-23T02:07:59.198Z,12.25
2023-02-23T02:10:45.926Z,12.18
2023-02-23T02:13:19.064Z,12.73
2023-02-23T02:15:59.107Z,12.18
2023-02-23T02:18:38.270Z,11.88
2023-02-23T02:21:19.054Z,11.57
2023-02-23T02:24:10.419Z,12.13
2023-02-23T02:26:49.015Z,13.57
2023-02-23T02:29:34.719Z,12.50
2023-02-23T02:32:17.262Z,11.93
2023-02-23T02:35:02.492Z,12.60
2023-02-23T02:37:47.840Z,12.65
2023-02-23T02:40:21.505Z,14.43
2023-02-23T02:43:09.118Z,14.13
2023-02-23T02:45:43.662Z,13.18
2023-02-23T02:48:19.403Z,13.45
2023-02-23T02:50:51.300Z,13.80
2023-02-23T02:53:26.147Z,14.63
2023-02-23T02:55:59.852Z,15.20
2023-02-23T02:58:30.120Z,16.05
2023-02-23T03:01:21.306Z,16.63
2023-02-23T03:04:04.506Z,14.95
2023-02-23T03:06:48.514Z,16.50
2023-02-23T03:09:39.680Z,16.17
2023-02-23T03:12:23.891Z,15.98
2023-02-23T03:15:11.744Z,16.20
2023-02-23T03:17:58.938Z,15.55
2023-02-23T03:20:42.993Z,19.13
2023-02-23T03:23:30.319Z,15.43
2023-02-23T03:26:18.537Z,14.25
2023-02-23T03:29:05.597Z,15.35
2023-02-23T03:31:53.276Z,15.10
2023-02-23T03:34:38.139Z,16.27
2023-02-23T03:37:24.345Z,16.20
2023-02-23T03:40:09.525Z,16.42
2023-02-23T03:42:57.212Z,17.92
2023-02-23T03:45:41.381Z,16.48
2023-02-23T03:48:25.894Z,15.73
2023-02-23T03:51:10.194Z,16.27
2023-02-23T03:56:37.209Z,17.48
2023-02-23T03:59:23.176Z,15.93
2023-02-23T04:02:07.212Z,15.75
2023-02-23T04:04:50.744Z,18.00
2023-02-23T04:07:34.710Z,15.35
2023-02-23T04:10:17.990Z,16.58
2023-02-23T04:13:02.906Z,15.45
2023-02-23T04:15:34.876Z,14.63
2023-02-23T04:18:07.104Z,15.73
2023-02-23T04:20:37.681Z,16.45
2023-02-23T04:23:07.892Z,15.77
2023-02-23T04:25:38.384Z,15.27
2023-02-23T04:28:08.842Z,16.02
2023-02-23T04:30:42.068Z,16.35
2023-02-23T04:33:12.582Z,14.93
2023-02-23T04:35:42.843Z,16.45
2023-02-23T04:38:13.073Z,16.38
2023-02-23T04:40:43.380Z,15.52
2023-02-23T04:43:14.385Z,15.85
2023-02-23T04:45:47.599Z,16.77
2023-02-23T04:48:17.823Z,16.15
2023-02-23T04:50:49.969Z,17.85
2023-02-23T04:53:20.225Z,16.42
2023-02-23T04:55:50.763Z,18.75
2023-02-23T04:58:20.987Z,16.15
2023-02-23T05:00:53.894Z,15.73
2023-02-23T05:03:24.127Z,15.80
2023-02-23T05:05:54.866Z,16.05
2023-02-23T05:08:25.068Z,15.98
2023-02-23T05:10:55.330Z,18.73
2023-02-23T05:13:25.602Z,15.65
2023-02-23T05:16:02.266Z,19.33
2023-02-23T05:18:32.593Z,16.60
2023-02-23T05:21:06.184Z,15.55
2023-02-23T05:23:37.840Z,17.65
2023-02-23T05:26:09.008Z,15.30
2023-02-23T05:28:39.962Z,16.70
2023-02-23T05:31:12.947Z,16.15
2023-02-23T05:33:43.420Z,16.10
2023-02-23T05:36:14.281Z,15.63
2023-02-23T05:38:44.534Z,15.90
2023-02-23T05:41:15.851Z,16.00
2023-02-23T05:43:46.119Z,17.27
2023-02-23T05:46:19.704Z,16.45
2023-02-23T05:48:50.154Z,15.82
2023-02-23T05:51:21.211Z,16.50
2023-02-23T05:56:23.189Z,15.40
2023-02-23T05:58:54.398Z,16.83
2023-02-23T06:01:27.342Z,17.00
2023-02-23T06:03:57.637Z,18.60
2023-02-23T06:06:28.605Z,16.27
2023-02-23T06:08:58.874Z,15.90
2023-02-23T06:11:29.120Z,16.52
2023-02-23T06:14:01.098Z,17.67
2023-02-23T06:16:34.088Z,16.25
2023-02-23T06:19:04.401Z,17.00
2023-02-23T06:21:34.892Z,16.95
2023-02-23T06:24:05.157Z,17.25
2023-02-23T06:26:35.710Z,18.45
2023-02-23T06:29:05.964Z,19.08
2023-02-23T06:31:38.991Z,16.30
2023-02-23T06:34:09.271Z,15.63
2023-02-23T06:36:39.686Z,15.80
2023-02-23T06:39:10.033Z,16.92
2023-02-23T06:41:40.632Z,17.15
2023-02-23T06:44:10.924Z,21.10
2023-02-23T06:46:43.792Z,17.05
2023-02-23T06:49:16.575Z,16.58
2023-02-23T06:51:47.727Z,17.15
2023-02-23T06:54:18.000Z,16.50
2023-02-23T06:56:48.210Z,16.05
2023-02-23T06:59:18.486Z,19.95
2023-02-23T07:01:51.411Z,17.17
2023-02-23T07:04:21.698Z,16.17
2023-02-23T07:06:52.061Z,15.82
2023-02-23T07:09:22.271Z,19.75
2023-02-23T07:11:53.072Z,17.17
2023-02-23T07:14:27.016Z,16.30
2023-02-23T07:17:00.174Z,15.65
2023-02-23T07:19:30.742Z,16.67
2023-02-23T07:22:01.242Z,16.85
2023-02-23T07:24:31.476Z,16.73
2023-02-23T07:27:01.764Z,17.13
2023-02-23T07:29:32.035Z,17.63
2023-02-23T07:32:05.078Z,17.45
2023-02-23T07:34:35.338Z,17.95
2023-02-23T07:37:05.629Z,16.58
2023-02-23T07:39:35.859Z,16.80
2023-02-23T07:42:06.172Z,16.85
2023-02-23T07:44:36.447Z,15.75
2023-02-23T07:47:09.478Z,17.17
2023-02-23T07:49:39.702Z,15.45
2023-02-23T07:52:10.050Z,17.52
2023-02-23T07:54:40.273Z,17.23
2023-02-23T07:57:11.498Z,17.55
2023-02-23T08:02:14.747Z,17.92
2023-02-23T08:04:45.052Z,16.60
2023-02-23T08:07:15.470Z,16.45
2023-02-23T08:09:45.971Z,15.90
2023-02-23T08:12:16.268Z,17.05
2023-02-23T08:14:46.612Z,16.52
2023-02-23T08:17:19.794Z,17.13
2023-02-23T08:19:50.148Z,20.45
2023-02-23T08:22:21.529Z,17.77
2023-02-23T08:24:51.831Z,17.23
2023-02-23T08:27:22.159Z,16.60
2023-02-23T08:29:52.676Z,17.23
2023-02-23T08:32:25.607Z,17.75
2023-02-23T08:34:55.891Z,17.98
2023-02-23T08:37:26.142Z,17.05
2023-02-23T08:39:56.689Z,17.33
2023-02-23T08:42:27.009Z,19.27
2023-02-23T08:44:57.532Z,17.23
2023-02-23T08:47:30.494Z,17.10
2023-02-23T08:50:00.722Z,16.80
2023-02-23T08:52:31.007Z,16.63
2023-02-23T08:55:01.242Z,16.08
2023-02-23T08:57:31.652Z,16.55
2023-02-23T09:00:02.307Z,17.75
2023-02-23T09:02:35.680Z,17.52
2023-02-23T09:05:05.946Z,16.20
2023-02-23T09:07:36.267Z,17.73
2023-02-23T09:10:06.632Z,16.65
2023-02-23T09:12:37.049Z,15.93
2023-02-23T09:15:07.819Z,16.75
2023-02-23T09:17:43.016Z,17.48
2023-02-23T09:20:16.015Z,16.08
2023-02-23T09:22:49.387Z,15.90
2023-02-23T09:25:22.810Z,16.40
2023-02-23T09:27:53.493Z,15.30
2023-02-23T09:30:24.309Z,15.88
2023-02-23T09:32:57.896Z,16.05
2023-02-23T09:35:28.401Z,18.52
2023-02-23T09:37:59.509Z,16.08
2023-02-23T09:40:30.838Z,14.55
2023-02-23T09:43:04.638Z,16.10
2023-02-23T09:45:39.407Z,15.88
2023-02-23T09:48:17.183Z,16.60
2023-02-23T09:53:24.875Z,16.33
2023-02-23T09:55:58.090Z,15.70
2023-02-23T09:58:29.305Z,15.05
2023-02-23T10:03:33.805Z,15.48
2023-02-23T10:06:05.785Z,14.85
2023-02-23T10:08:48.688Z,15.50
2023-02-23T10:11:27.069Z,15.93
2023-02-23T10:14:08.054Z,14.85
2023-02-23T10:16:43.304Z,14.10
2023-02-23T10:19:23.190Z,15.07
2023-02-23T10:21:57.755Z,15.52
2023-02-23T10:24:29.557Z,15.35
2023-02-23T10:27:01.911Z,15.50
2023-02-23T10:29:34.106Z,14.68
2023-02-23T10:32:06.138Z,15.95
2023-02-23T10:34:40.201Z,14.77
2023-02-23T10:37:10.867Z,17.35
2023-02-23T10:39:41.199Z,14.52
2023-02-23T10:42:16.370Z,14.55
2023-02-23T10:44:47.118Z,14.35
2023-02-23T10:47:18.820Z,16.58
2023-02-23T10:49:52.728Z,15.35
2023-02-23T10:52:25.141Z,14.32
2023-02-23T10:54:55.561Z,15.63
2023-02-23T10:57:27.884Z,13.95
2023-02-23T11:00:10.486Z,14.77
2023-02-23T11:02:41.860Z,17.27
2023-02-23T11:05:32.013Z,14.27
2023-02-23T11:08:29.418Z,15.32
2023-02-23T11:11:21.726Z,14.85
2023-02-23T11:13:53.010Z,15.65
2023-02-23T11:16:25.383Z,14.52
2023-02-23T11:18:57.450Z,14.55
2023-02-23T11:21:34.328Z,13.45
2023-02-23T11:24:08.191Z,13.68
2023-02-23T11:26:40.849Z,13.10
2023-02-23T11:29:17.582Z,14.98
2023-02-23T11:31:51.199Z,13.27
2023-02-23T11:34:24.992Z,14.55
2023-02-23T11:37:05.477Z,13.98
2023-02-23T11:39:38.694Z,14.23
2023-02-23T11:42:17.160Z,15.00
2023-02-23T11:44:53.236Z,13.32
2023-02-23T11:47:26.263Z,13.85
2023-02-23T11:49:56.966Z,14.45
2023-02-23T11:52:31.490Z,13.65
2023-02-23T11:55:02.826Z,13.10
2023-02-23T11:57:34.926Z,13.48
2023-02-23T12:00:06.424Z,13.18
2023-02-23T12:02:36.802Z,13.05
2023-02-23T12:05:10.473Z,13.15
2023-02-23T12:07:44.591Z,12.07
2023-02-23T12:10:20.244Z,12.50
2023-02-23T12:12:57.819Z,12.18
2023-02-23T12:18:00.916Z,10.25
2023-02-23T12:20:33.972Z,9.95
2023-02-23T12:23:10.301Z,11.93
2023-02-23T12:25:45.388Z,9.82
2023-02-23T12:28:19.628Z,10.65
2023-02-23T12:30:55.071Z,9.93
2023-02-23T12:33:34.189Z,8.98
2023-02-23T12:36:06.937Z,8.95
2023-02-23T12:38:48.858Z,11.43
2023-02-23T12:41:21.791Z,9.80
2023-02-23T12:43:54.604Z,10.98
2023-02-23T12:46:26.268Z,9.60
2023-02-23T12:49:01.444Z,8.40
2023-02-23T12:51:33.901Z,7.78
2023-02-23T12:54:07.110Z,8.32
2023-02-23T12:56:46.949Z,8.25
2023-02-23T12:59:44.555Z,7.43
2023-02-23T13:02:18.281Z,7.15
2023-02-23T13:04:56.012Z,7.68
2023-02-23T13:07:28.070Z,7.70
2023-02-23T13:10:05.900Z,7.43
2023-02-23T13:12:44.138Z,6.65
2023-02-23T13:15:22.353Z,9.15
2023-02-23T13:17:54.476Z,6.35
2023-02-23T13:20:28.002Z,9.60
2023-02-23T13:23:03.384Z,9.02
2023-02-23T13:25:40.805Z,8.85
2023-02-23T13:28:16.664Z,8.52
2023-02-23T13:30:47.907Z,8.43
2023-02-23T13:33:41.937Z,8.13
2023-02-23T13:36:14.714Z,11.32
2023-02-23T13:38:48.670Z,7.18
2023-02-23T13:41:28.087Z,5.57
2023-02-23T13:44:01.209Z,8.38
2023-02-23T13:46:37.488Z,5.78
2023-02-23T13:49:17.327Z,6.22
2023-02-23T13:51:49.986Z,6.45
2023-02-23T13:54:29.763Z,6.45
2023-02-23T13:57:03.847Z,6.38
2023-02-23T13:59:36.812Z,6.85
2023-02-23T14:02:19.544Z,6.05
2023-02-23T14:04:49.984Z,6.65
2023-02-23T14:07:22.302Z,5.30
2023-02-23T14:09:57.188Z,5.65
2023-02-23T14:12:36.254Z,5.57
2023-02-23T14:15:21.525Z,5.07
2023-02-23T14:18:00.941Z,5.22
2023-02-23T14:20:46.191Z,5.22
2023-02-23T14:23:30.158Z,4.40
2023-02-23T14:26:15.384Z,6.75
2023-02-23T14:28:49.252Z,4.82
2023-02-23T14:31:25.997Z,5.20
2023-02-23T14:34:02.126Z,4.32
2023-02-23T14:36:56.701Z,6.28
2023-02-23T14:39:28.486Z,4.45
2023-02-23T14:41:59.627Z,5.05
2023-02-23T14:44:33.892Z,8.27
2023-02-23T14:47:09.151Z,7.45
2023-02-23T14:49:41.503Z,7.10
2023-02-23T14:52:12.317Z,6.20
2023-02-23T14:54:43.670Z,6.80
2023-02-23T14:57:21.337Z,6.90
2023-02-23T15:00:05.544Z,5.95
2023-02-23T15:02:45.805Z,6.75
2023-02-23T15:05:19.707Z,5.38
2023-02-23T15:07:51.982Z,6.60
2023-02-23T15:10:24.291Z,8.13
2023-02-23T15:12:54.558Z,6.25
2023-02-23T15:15:28.727Z,5.72
2023-02-23T15:18:01.608Z,5.20
2023-02-23T15:23:05.230Z,5.07
2023-02-23T15:25:39.998Z,5.53
2023-02-23T15:28:25.324Z,7.00
2023-02-23T15:30:59.054Z,11.98
2023-02-23T15:33:31.181Z,9.45
2023-02-23T15:36:11.412Z,4.82
2023-02-23T15:38:44.828Z,4.30
2023-02-23T15:41:23.310Z,5.63
2023-02-23T15:43:53.745Z,4.07
2023-02-23T15:46:30.256Z,6.78
2023-02-23T15:49:05.355Z,3.95
2023-02-23T15:51:38.096Z,5.22
2023-02-23T15:54:14.156Z,4.63
2023-02-23T15:56:47.066Z,9.80
2023-02-23T15:59:20.961Z,4.80
2023-02-23T16:01:57.363Z,3.78
2023-02-23T16:04:30.104Z,4.43
2023-02-23T16:07:13.273Z,4.90
2023-02-23T16:09:43.545Z,3.97
2023-02-23T16:12:16.391Z,6.40
2023-02-23T16:14:47.503Z,4.10
2023-02-23T16:17:25.405Z,7.35
2023-02-23T16:19:55.955Z,4.97
2023-02-23T16:22:28.950Z,4.40
2023-02-23T16:25:05.200Z,3.97
2023-02-23T16:27:35.626Z,5.45
2023-02-23T16:30:09.880Z,5.15
2023-02-23T16:32:45.135Z,4.10
2023-02-23T16:35:19.528Z,3.67
2023-02-23T16:37:54.914Z,3.85
2023-02-23T16:40:25.419Z,4.35
2023-02-23T16:42:59.564Z,5.35
2023-02-23T16:45:30.444Z,9.45
2023-02-23T16:48:04.656Z,3.88
2023-02-23T16:50:36.461Z,5.97
2023-02-23T16:53:09.624Z,4.47
2023-02-23T16:55:41.927Z,4.00
2023-02-23T16:58:13.982Z,4.05
2023-02-23T17:00:44.441Z,5.93
2023-02-23T17:03:23.193Z,6.60
2023-02-23T17:05:53.772Z,5.68
2023-02-23T17:08:24.718Z,7.25
2023-02-23T17:10:55.995Z,7.45
2023-02-23T17:13:27.157Z,5.20
2023-02-23T17:18:30.736Z,5.15
2023-02-23T17:21:01.779Z,5.20
2023-02-23T17:23:39.288Z,5.15
2023-02-23T17:26:10.470Z,5.25
2023-02-23T17:28:41.061Z,5.10
2023-02-23T17:31:11.572Z,5.47
2023-02-23T17:33:45.066Z,5.70
2023-02-23T17:36:16.958Z,8.35
2023-02-23T17:38:47.559Z,11.52
2023-02-23T17:41:19.631Z,9.77
2023-02-23T17:43:50.199Z,9.13
2023-02-23T17:46:20.561Z,7.45
2023-02-23T17:48:55.251Z,7.70
2023-02-23T17:51:26.639Z,5.35
2023-02-23T17:53:57.121Z,8.73
2023-02-23T17:56:28.348Z,8.85
2023-02-23T17:58:58.653Z,6.40
2023-02-23T18:01:28.899Z,8.20
2023-02-23T18:04:01.961Z,6.57
2023-02-23T18:06:32.193Z,6.15
2023-02-23T18:09:05.603Z,6.65
2023-02-23T18:11:36.326Z,5.28
2023-02-23T18:14:06.632Z,6.00
2023-02-23T18:16:36.888Z,8.00
2023-02-23T18:19:09.751Z,6.82
2023-02-23T18:21:41.716Z,6.43
2023-02-23T18:24:12.018Z,6.65
2023-02-23T18:26:42.575Z,6.75
2023-02-23T18:29:12.843Z,7.53
2023-02-23T18:31:43.317Z,7.38
2023-02-23T18:34:16.346Z,8.10
2023-02-23T18:36:47.380Z,8.43
2023-02-23T18:39:17.865Z,7.53
2023-02-23T18:41:48.173Z,9.27
2023-02-23T18:44:21.880Z,7.00
2023-02-23T18:46:53.057Z,7.07
2023-02-23T18:49:27.287Z,7.20
2023-02-23T18:51:58.235Z,6.70
2023-02-23T18:54:29.808Z,8.02
2023-02-23T18:57:00.045Z,8.50
2023-02-23T18:59:30.300Z,6.47
2023-02-23T19:02:01.040Z,8.07
2023-02-23T19:04:34.104Z,6.03
2023-02-23T19:07:04.765Z,7.05
2023-02-23T19:09:39.744Z,7.78
2023-02-23T19:12:11.917Z,2.75
2023-02-23T19:14:49.752Z,3.13
2023-02-23T19:17:20.195Z,3.67
2023-02-23T19:19:55.409Z,2.80
2023-02-23T19:22:25.898Z,2.42
2023-02-23T19:24:56.464Z,2.95
2023-02-23T19:27:29.547Z,3.78
2023-02-23T19:30:00.012Z,3.95
2023-02-23T19:32:30.455Z,4.10
2023-02-23T19:35:03.453Z,4.32
2023-02-23T19:37:33.712Z,4.10
2023-02-23T19:40:04.799Z,4.90
2023-02-23T19:42:37.041Z,4.93
2023-02-23T19:45:07.731Z,1.60
2023-02-23T19:47:37.995Z,2.03
2023-02-23T19:50:11.689Z,4.15
2023-02-23T19:52:42.508Z,1.55
2023-02-23T19:55:13.460Z,1.80
2023-02-23T19:57:43.725Z,1.17
2023-02-23T20:00:14.661Z,4.80
2023-02-23T20:02:50.524Z,6.75
2023-02-23T20:05:23.924Z,5.80
2023-02-23T20:07:54.865Z,3.40
2023-02-23T20:10:26.139Z,2.72
2023-02-23T20:15:26.447Z,4.50
2023-02-23T20:17:56.667Z,2.13
2023-02-23T20:20:29.837Z,5.57
2023-02-23T20:23:00.074Z,7.97
2023-02-23T20:25:31.489Z,6.43
2023-02-23T20:28:02.234Z,14.90
2023-02-23T20:30:32.844Z,9.55
2023-02-23T20:33:05.892Z,19.90
2023-02-23T20:35:38.808Z,26.25
2023-02-23T20:38:09.168Z,15.18
2023-02-23T20:40:39.473Z,22.80
2023-02-23T20:43:11.253Z,19.17
2023-02-23T20:45:41.981Z,9.13
2023-02-23T20:48:12.386Z,4.32
2023-02-23T20:50:45.428Z,4.45
2023-02-23T20:53:15.704Z,4.35
2023-02-23T20:55:46.023Z,3.30
2023-02-23T20:58:26.435Z,3.78
2023-02-23T21:00:57.390Z,2.78
2023-02-23T21:03:28.121Z,3.00
2023-02-23T21:06:01.166Z,3.17
2023-02-23T21:08:31.557Z,3.53
2023-02-23T21:11:08.976Z,3.75
2023-02-23T21:13:39.619Z,3.58
2023-02-23T21:16:10.552Z,3.13
2023-02-23T21:18:40.830Z,2.97
2023-02-23T21:21:15.896Z,3.58
2023-02-23T21:23:48.988Z,4.57
2023-02-23T21:26:21.732Z,5.38
2023-02-23T21:28:52.151Z,3.33
2023-02-23T21:31:22.819Z,2.33
2023-02-23T21:33:53.595Z,1.95
2023-02-23T21:36:26.585Z,1.85
2023-02-23T21:38:56.841Z,2.60
2023-02-23T21:41:27.618Z,2.35
2023-02-23T21:43:57.919Z,2.42
2023-02-23T21:46:28.433Z,3.00
2023-02-23T21:48:58.806Z,4.38
2023-02-23T21:51:34.928Z,5.07
2023-02-23T21:54:05.234Z,3.08
2023-02-23T21:56:36.938Z,2.55
2023-02-23T21:59:08.442Z,2.78
2023-02-23T22:01:40.944Z,1.70
2023-02-23T22:04:12.256Z,1.50
2023-02-23T22:09:16.144Z,1.25
2023-02-23T22:11:48.045Z,2.95
2023-02-23T22:14:19.353Z,1.85
2023-02-23T22:19:20.315Z,1.65
2023-02-23T22:21:50.890Z,2.13
2023-02-23T22:24:23.678Z,1.45
2023-02-23T22:26:54.569Z,1.55
2023-02-23T22:29:25.165Z,4.55
2023-02-23T22:31:55.647Z,8.43
2023-02-23T22:34:26.104Z,7.30
2023-02-23T22:36:56.381Z,6.32
2023-02-23T22:39:33.389Z,5.80
2023-02-23T22:42:09.420Z,3.63
2023-02-23T22:44:41.502Z,4.25
2023-02-23T22:47:11.867Z,3.97
2023-02-23T22:49:42.139Z,2.30
2023-02-23T22:52:12.859Z,2.70
2023-02-23T22:54:46.540Z,2.25
2023-02-23T22:57:17.078Z,2.55
2023-02-23T22:59:54.789Z,2.47
2023-02-23T23:02:25.423Z,3.03
2023-02-23T23:04:56.311Z,2.15
2023-02-23T23:07:28.320Z,3.60
2023-02-23T23:10:03.754Z,1.88
2023-02-23T23:12:34.794Z,1.60
2023-02-23T23:15:05.258Z,2.15
2023-02-23T23:17:35.874Z,2.28
2023-02-23T23:20:11.916Z,4.30
2023-02-23T23:22:42.197Z,1.75
2023-02-23T23:25:22.948Z,1.67
2023-02-23T23:27:55.445Z,2.17
2023-02-23T23:30:29.299Z,1.88
2023-02-23T23:33:00.304Z,1.80
2023-02-23T23:35:30.844Z,1.80
2023-02-23T23:38:01.856Z,1.48
2023-02-23T23:40:35.856Z,1.45
2023-02-23T23:43:07.938Z,2.05
2023-02-23T23:45:38.986Z,1.65
2023-02-23T23:48:10.638Z,1.67
2023-02-23T23:50:40.900Z,1.65
2023-02-23T23:53:11.237Z,2.67
2023-02-23T23:55:44.081Z,2.38
2023-02-23T23:58:18.554Z,1.60
